• Join FlightAware (Why Join?)
  • Login
  • US Flag 
12:00PM EDT


 

Airport Tracker/Info


-or-


 

Live Flight TrackerFlight Track Log ✈ N511RH ✈ 23-Jul-2013 ✈ KCMH - KJQF

Flight Track Log - Related Links

Times and Time Zones

All times are in EDT time to prevent confusion due to time zone crossing. See the N511RH flight status page for this flight to view local times or setup timezone preferences in your user account.

Time Position Orientation Groundspeed Altitude Reporting Facility
EDT Latitude Longitude Course Direction KTS MPH feet Rate Location/Type
05:17PM 39.9944 -82.9033 246° West 154 177 1,200  Level Indianapolis Center
05:18PM 39.9856 -82.9292 246° West 156 180 2,300 1,920 Climbing Indianapolis Center
05:18PM 39.9539 -82.9261 176° South 202 232 3,600 1,920 Climbing Indianapolis Center
05:19PM 39.8958 -82.9064 165° South 210 242 5,700 1,980 Climbing Indianapolis Center
05:20PM 39.8342 -82.8886 168° South 220 253 7,800 2,040 Climbing Indianapolis Center
05:21PM 39.7692 -82.8703 168° South 232 267 10,000 1,200 Climbing Indianapolis Center
05:22PM 39.6883 -82.8567 173° South 281 323 10,300 960 Climbing Indianapolis Center
05:23PM 39.6047 -82.8489 176° South 299 344 12,000 1,260 Climbing Indianapolis Center
05:24PM 39.5019 -82.8372 175° South 314 361 12,900 1,380 Climbing Indianapolis Center
05:25PM 39.4161 -82.8250 174° South 305 351 14,900 1,800 Climbing Indianapolis Center
05:27PM 39.3369 -82.8050 169° South 288 331 16,700 1,740 Climbing Indianapolis Center
05:28PM 39.2611 -82.7867 169° South 277 319 18,600 1,560 Climbing Indianapolis Center
05:29PM 39.1878 -82.7528 160° South 279 321 20,000 1,200 Climbing Indianapolis Center
05:30PM 39.1153 -82.7056 153° Southeast 286 329 21,200 960 Climbing Indianapolis Center
05:31PM 39.0400 -82.6611 155° Southeast 295 339 22,100 900 Climbing Indianapolis Center
05:32PM 38.9642 -82.6142 154° Southeast 301 346 23,100 900 Climbing Indianapolis Center
05:33PM 38.8714 -82.5564 154° Southeast 308 354 24,000 660 Climbing Indianapolis Center
05:34PM 38.7944 -82.5094 155° Southeast 309 356 24,500 480 Climbing Indianapolis Center
05:35PM 38.7150 -82.4603 154° Southeast 316 364 25,000 240 Climbing Indianapolis Center
05:36PM 38.6314 -82.4103 155° Southeast 330 380 25,000  Level Indianapolis Center
05:37PM 38.5428 -82.3550 154° Southeast 352 405 25,000 -60 Level Indianapolis Center
05:38PM 38.4536 -82.3014 155° Southeast 356 410 24,900 -480 Descending Indianapolis Center
05:39PM 38.3414 -82.2339 155° Southeast 372 428 24,100 -480 Descending Indianapolis Center
05:40PM 38.2494 -82.1778 154° Southeast 369 425 24,000 -60 Descending Indianapolis Center
05:41PM 38.1619 -82.1269 155° Southeast 350 403 24,000  Level Indianapolis Center
05:42PM 38.0725 -82.0722 154° Southeast 354 407 24,000  Level Indianapolis Center
05:43PM 37.9806 -82.0169 155° Southeast 363 418 24,000  Level Indianapolis Center
05:44PM 37.8700 -81.9506 155° Southeast 367 422 24,000  Level Indianapolis Center
05:45PM 37.7814 -81.8986 155° Southeast 368 423 24,000  Level Indianapolis Center
05:46PM 37.6878 -81.8433 155° Southeast 369 425 24,000 -60 Level Indianapolis Center
05:47PM 37.5950 -81.7872 154° Southeast 368 423 23,900 -300 Descending Indianapolis Center
05:48PM 37.4825 -81.7203 155° Southeast 376 433 23,400 -480 Descending Indianapolis Center
05:49PM 37.3847 -81.6642 155° Southeast 382 440 23,000 -240 Descending Indianapolis Center
05:50PM 37.2886 -81.6064 154° Southeast 380 437 23,000  Level Indianapolis Center
05:51PM 37.1936 -81.5514 155° Southeast 376 433 23,000  Level Indianapolis Center
05:52PM 37.0994 -81.4969 155° Southeast 372 428 23,000 -120 Level Indianapolis Center
05:53PM 37.0031 -81.4406 155° Southeast 370 426 22,800 -360 Descending Indianapolis Center
05:54PM 36.9094 -81.3867 155° Southeast 377 434 22,300 -600 Descending Indianapolis Center
05:55PM 36.8253 -81.3419 157° South 382 440 21,800 -900 Descending Atlanta Center
05:56PM 36.7194 -81.2756 153° Southeast 382 440 20,800 -1,020 Descending Atlanta Center
05:57PM 36.6181 -81.2169 155° Southeast 388 447 19,800 -1,020 Descending Atlanta Center
05:58PM 36.5208 -81.1608 155° Southeast 388 447 18,800 -1,080 Descending Atlanta Center
05:59PM 36.4258 -81.1103 157° South 382 440 17,700 -1,020 Descending Atlanta Center
06:00PM 36.3433 -81.0592 153° Southeast 376 433 16,800 -1,140 Descending Atlanta Center
06:01PM 36.2503 -81.0083 156° South 369 425 15,500 -1,560 Descending Atlanta Center
06:02PM 36.1614 -80.9578 155° Southeast 359 413 13,700 -1,920 Descending Atlanta Center
06:03PM 36.0831 -80.9144 156° South 328 377 11,700 -2,040 Descending Atlanta Center
06:04PM 36.0050 -80.8714 156° South 315 362 9,700 -2,160 Descending Atlanta Center
06:05PM 35.9539 -80.8400 154° Southeast 303 349 8,400 -2,220 Descending Atlanta Center
06:06PM 35.8781 -80.8019 158° South 291 335 6,300 -1,620 Descending Atlanta Center
06:07PM 35.8081 -80.7586 153° Southeast 266 306 5,000 -1,020 Descending Atlanta Center
06:08PM 35.7386 -80.7411 168° South 306 352 4,300 -780 Descending Atlanta Center
06:09PM 35.6714 -80.7283 171° South 261 300 3,500 -660 Descending Atlanta Center
06:10PM 35.5981 -80.7158 172° South 237 273 3,000 -240 Descending Atlanta Center
06:11PM 35.5353 -80.7006 169° South 215 247 3,000 -300 Level Atlanta Center
06:12PM 35.4744 -80.6903 172° South 203 234 2,400 -720 Descending Atlanta Center
06:13PM 35.4433 -80.6992 193° South 151 174 1,700 -720 Descending Atlanta Center
06:14PM 35.4081 -80.7058 189° South 138 159 1,200 -540 Descending Atlanta Center